Time,TemperatureF,DewpointF,PressureIn,WindDirection,WindDirectionDegrees,WindSpeedMPH,WindSpeedGustMPH,Humidity,HourlyPrecipIn,Conditions,Clouds,dailyrainin,SoftwareType,DateUTC
2013-05-29 00:02:00,66.0,65.7,30.24,SE,135,0.0,1.0,99,0.00,,,0.41,meteohub,2013-05-29 04:02:00,
2013-05-29 00:12:00,66.0,65.7,30.24,SE,135,0.0,1.0,99,0.00,,,0.00,meteohub,2013-05-29 04:12:00,
2013-05-29 00:22:00,66.0,65.7,30.24,South,180,0.0,2.0,99,0.00,,,0.00,meteohub,2013-05-29 04:22:00,
2013-05-29 00:32:00,66.0,65.7,30.24,South,180,1.0,1.0,99,0.00,,,0.00,meteohub,2013-05-29 04:32:00,
2013-05-29 00:42:00,66.0,65.7,30.25,South,180,0.0,2.0,99,0.00,,,0.00,meteohub,2013-05-29 04:42:00,
2013-05-29 00:52:00,66.0,65.7,30.25,South,180,0.0,2.0,99,0.00,,,0.00,meteohub,2013-05-29 04:52:00,
2013-05-29 01:02:00,66.0,65.7,30.25,South,180,0.0,2.0,99,0.00,,,0.00,meteohub,2013-05-29 05:02:00,
2013-05-29 01:12:00,66.0,65.7,30.24,South,180,0.0,2.0,99,0.00,,,0.00,meteohub,2013-05-29 05:12:00,
2013-05-29 01:22:00,66.0,65.7,30.25,South,180,0.0,2.0,99,0.00,,,0.00,meteohub,2013-05-29 05:22:00,
2013-05-29 01:32:00,66.0,65.7,30.24,South,180,2.0,2.0,99,0.00,,,0.00,meteohub,2013-05-29 05:32:00,
2013-05-29 01:42:00,66.0,65.7,30.24,South,180,1.0,2.0,99,0.00,,,0.00,meteohub,2013-05-29 05:42:00,
2013-05-29 01:52:00,66.0,65.7,30.24,West,270,0.0,2.0,99,0.00,,,0.00,meteohub,2013-05-29 05:52:00,
2013-05-29 02:02:00,66.0,65.7,30.24,South,180,1.0,2.0,99,0.00,,,0.00,meteohub,2013-05-29 06:02:00,
2013-05-29 02:12:00,66.0,65.7,30.24,South,180,1.0,2.0,99,0.00,,,0.00,meteohub,2013-05-29 06:12:00,
2013-05-29 02:22:00,66.0,65.7,30.23,South,180,2.0,2.0,99,0.00,,,0.00,meteohub,2013-05-29 06:22:00,
2013-05-29 02:32:00,66.0,65.7,30.23,South,180,1.0,2.0,99,0.00,,,0.00,meteohub,2013-05-29 06:32:00,
2013-05-29 02:42:00,66.0,65.7,30.23,SW,225,2.0,2.0,99,0.00,,,0.00,meteohub,2013-05-29 06:42:00,
2013-05-29 02:52:00,66.0,65.7,30.23,South,180,1.0,2.0,99,0.00,,,0.00,meteohub,2013-05-29 06:52:00,
2013-05-29 03:02:00,66.0,65.7,30.22,South,180,1.0,2.0,99,0.00,,,0.00,meteohub,2013-05-29 07:02:00,
2013-05-29 03:12:00,66.0,65.7,30.22,SSW,202,2.0,2.0,99,0.00,,,0.00,meteohub,2013-05-29 07:12:00,
2013-05-29 03:22:00,66.0,65.7,30.22,SSW,202,0.0,2.0,99,0.00,,,0.00,meteohub,2013-05-29 07:22:00,
2013-05-29 03:32:00,66.0,65.7,30.23,SW,225,0.0,2.0,99,0.00,,,0.00,meteohub,2013-05-29 07:32:00,
2013-05-29 03:42:00,66.0,65.7,30.23,SW,225,0.0,2.0,99,0.00,,,0.00,meteohub,2013-05-29 07:42:00,
2013-05-29 03:52:00,66.0,65.7,30.23,SW,225,0.0,2.0,99,0.00,,,0.00,meteohub,2013-05-29 07:52:00,
2013-05-29 04:02:00,66.0,65.7,30.23,SW,225,0.0,1.0,99,0.00,,,0.00,meteohub,2013-05-29 08:02:00,
2013-05-29 04:12:00,66.0,65.7,30.23,SW,225,0.0,2.0,99,0.00,,,0.00,meteohub,2013-05-29 08:12:00,
2013-05-29 04:22:00,64.9,64.4,30.23,SW,225,1.0,2.0,98,0.00,,,0.00,meteohub,2013-05-29 08:22:00,
2013-05-29 04:32:00,64.9,64.4,30.23,SW,225,0.0,2.0,98,0.00,,,0.00,meteohub,2013-05-29 08:32:00,
2013-05-29 04:42:00,64.9,64.4,30.23,SW,225,0.0,2.0,98,0.00,,,0.00,meteohub,2013-05-29 08:42:00,
2013-05-29 04:52:00,64.9,64.4,30.22,SW,225,1.0,2.0,98,0.00,,,0.00,meteohub,2013-05-29 08:52:00,
2013-05-29 05:02:00,64.9,64.4,30.22,SW,225,1.0,2.0,98,0.00,,,0.00,meteohub,2013-05-29 09:02:00,
2013-05-29 05:12:00,64.9,64.4,30.23,SW,225,0.0,2.0,98,0.00,,,0.00,meteohub,2013-05-29 09:12:00,
2013-05-29 05:22:00,64.9,64.4,30.23,SW,225,1.0,2.0,98,0.00,,,0.00,meteohub,2013-05-29 09:22:00,
2013-05-29 05:32:00,64.9,64.4,30.23,SW,225,0.0,2.0,98,0.00,,,0.00,meteohub,2013-05-29 09:32:00,
2013-05-29 05:42:00,64.9,64.4,30.23,WSW,247,0.0,2.0,98,0.00,,,0.00,meteohub,2013-05-29 09:42:00,
2013-05-29 05:52:00,64.9,64.4,30.23,SSW,202,2.0,2.0,98,0.00,,,0.00,meteohub,2013-05-29 09:52:00,
2013-05-29 06:02:00,64.9,64.4,30.23,SSW,202,1.0,4.0,98,0.00,,,0.00,meteohub,2013-05-29 10:02:00,
2013-05-29 06:12:00,64.9,64.4,30.24,SSW,202,2.0,2.0,98,0.00,,,0.00,meteohub,2013-05-29 10:12:00,
2013-05-29 06:22:00,64.9,64.4,30.24,SSW,202,1.0,2.0,98,0.00,,,0.00,meteohub,2013-05-29 10:22:00,
2013-05-29 06:32:00,64.9,64.4,30.24,SSW,202,1.0,2.0,98,0.00,,,0.00,meteohub,2013-05-29 10:32:00,
2013-05-29 06:42:00,64.9,64.4,30.24,South,180,2.0,2.0,98,0.00,,,0.00,meteohub,2013-05-29 10:42:00,
2013-05-29 06:52:00,66.0,65.7,30.24,SW,225,2.0,2.0,99,0.00,,,0.00,meteohub,2013-05-29 10:52:00,
2013-05-29 07:02:00,66.0,65.7,30.25,SW,225,2.0,2.0,99,0.00,,,0.00,meteohub,2013-05-29 11:02:00,
2013-05-29 07:12:00,66.0,65.7,30.25,SW,225,1.0,2.0,99,0.00,,,0.00,meteohub,2013-05-29 11:12:00,
2013-05-29 07:22:00,66.9,66.4,30.25,SW,225,1.0,3.0,98,0.00,,,0.00,meteohub,2013-05-29 11:22:00,
2013-05-29 07:32:00,66.9,66.0,30.26,SSW,202,1.0,3.0,97,0.00,,,0.00,meteohub,2013-05-29 11:32:00,
2013-05-29 07:42:00,68.0,66.6,30.26,SW,225,2.0,2.0,95,0.00,,,0.00,meteohub,2013-05-29 11:42:00,
2013-05-29 07:52:00,69.1,67.3,30.26,South,180,1.0,5.0,94,0.00,,,0.00,meteohub,2013-05-29 11:52:00,
2013-05-29 08:02:00,70.0,67.5,30.27,SW,225,1.0,4.0,92,0.00,,,0.00,meteohub,2013-05-29 12:02:00,
2013-05-29 08:12:00,71.1,67.6,30.28,SW,225,1.0,5.0,89,0.00,,,0.00,meteohub,2013-05-29 12:12:00,
2013-05-29 08:22:00,71.1,67.3,30.28,South,180,2.0,6.0,88,0.00,,,0.00,meteohub,2013-05-29 12:22:00,
2013-05-29 08:32:00,72.0,66.9,30.30,SSE,157,2.0,6.0,84,0.00,,,0.00,meteohub,2013-05-29 12:32:00,
2013-05-29 08:42:00,73.9,67.8,30.31,SW,225,0.0,2.0,81,0.00,,,0.00,meteohub,2013-05-29 12:42:00,
2013-05-29 08:52:00,73.9,67.1,30.32,SE,135,0.0,2.0,79,0.00,,,0.00,meteohub,2013-05-29 12:52:00,
2013-05-29 09:02:00,75.0,67.3,30.32,SW,225,2.0,3.0,77,0.00,,,0.00,meteohub,2013-05-29 13:02:00,
2013-05-29 09:12:00,75.9,67.8,30.33,SW,225,1.0,2.0,76,0.00,,,0.00,meteohub,2013-05-29 13:12:00,
2013-05-29 09:22:00,77.0,67.6,30.33,SE,135,0.0,2.0,73,0.00,,,0.00,meteohub,2013-05-29 13:22:00,
2013-05-29 09:32:00,78.1,67.5,30.34,SE,135,2.0,3.0,70,0.00,,,0.00,meteohub,2013-05-29 13:32:00,
2013-05-29 09:42:00,78.1,66.7,30.34,South,180,0.0,3.0,68,0.00,,,0.00,meteohub,2013-05-29 13:42:00,
2013-05-29 09:52:00,79.0,66.6,30.34,South,180,1.0,3.0,66,0.00,,,0.00,meteohub,2013-05-29 13:52:00,
2013-05-29 10:02:00,80.1,67.3,30.34,West,270,0.0,2.0,65,0.00,,,0.00,meteohub,2013-05-29 14:02:00,
2013-05-29 10:12:00,81.0,68.0,30.34,South,180,1.0,4.0,65,0.00,,,0.00,meteohub,2013-05-29 14:12:00,
2013-05-29 10:22:00,80.1,66.7,30.34,SW,225,0.0,4.0,64,0.00,,,0.00,meteohub,2013-05-29 14:22:00,
2013-05-29 10:32:00,80.1,67.6,30.34,South,180,1.0,4.0,66,0.00,,,0.00,meteohub,2013-05-29 14:32:00,
2013-05-29 10:42:00,79.0,65.8,30.34,SSW,202,2.0,4.0,64,0.00,,,0.00,meteohub,2013-05-29 14:42:00,
2013-05-29 10:52:00,79.0,66.2,30.34,SW,225,1.0,2.0,65,0.00,,,0.00,meteohub,2013-05-29 14:52:00,
2013-05-29 11:02:00,80.1,67.3,30.34,SW,225,1.0,4.0,65,0.00,,,0.00,meteohub,2013-05-29 15:02:00,
2013-05-29 11:12:00,81.0,67.1,30.35,SW,225,0.0,2.0,63,0.00,,,0.00,meteohub,2013-05-29 15:12:00,
2013-05-29 11:22:00,82.9,68.2,30.35,SW,225,1.0,3.0,61,0.00,,,0.00,meteohub,2013-05-29 15:22:00,
2013-05-29 11:32:00,82.9,66.6,30.36,South,180,2.0,2.0,58,0.00,,,0.00,meteohub,2013-05-29 15:32:00,
2013-05-29 11:42:00,84.0,67.6,30.36,SE,135,2.0,2.0,58,0.00,,,0.00,meteohub,2013-05-29 15:42:00,
2013-05-29 11:52:00,84.9,68.0,30.36,South,180,2.0,2.0,57,0.00,,,0.00,meteohub,2013-05-29 15:52:00,
2013-05-29 12:02:00,86.0,66.9,30.36,SW,225,1.0,2.0,53,0.00,,,0.00,meteohub,2013-05-29 16:02:00,
2013-05-29 12:12:00,86.0,64.6,30.36,South,180,0.0,6.0,49,0.00,,,0.00,meteohub,2013-05-29 16:12:00,
2013-05-29 12:22:00,86.0,63.5,30.36,South,180,2.0,6.0,47,0.00,,,0.00,meteohub,2013-05-29 16:22:00,
2013-05-29 12:32:00,87.1,63.9,30.36,SSE,157,0.0,2.0,46,0.00,,,0.00,meteohub,2013-05-29 16:32:00,
2013-05-29 12:42:00,87.1,60.4,30.36,SE,135,1.0,4.0,41,0.00,,,0.00,meteohub,2013-05-29 16:42:00,
2013-05-29 12:52:00,87.1,61.2,30.36,NE,45,1.0,5.0,42,0.00,,,0.00,meteohub,2013-05-29 16:52:00,
2013-05-29 13:02:00,86.0,60.3,30.36,SW,225,2.0,4.0,42,0.00,,,0.00,meteohub,2013-05-29 17:02:00,
2013-05-29 13:12:00,87.1,61.9,30.36,West,270,2.0,6.0,43,0.00,,,0.00,meteohub,2013-05-29 17:12:00,
2013-05-29 13:22:00,87.1,61.2,30.35,WNW,292,2.0,6.0,42,0.00,,,0.00,meteohub,2013-05-29 17:22:00,
2013-05-29 13:32:00,88.0,61.3,30.36,SSE,157,0.0,4.0,41,0.00,,,0.00,meteohub,2013-05-29 17:32:00,
2013-05-29 13:42:00,88.0,61.3,30.35,South,180,2.0,4.0,41,0.00,,,0.00,meteohub,2013-05-29 17:42:00,
2013-05-29 13:52:00,88.0,62.6,30.35,West,270,0.0,5.0,43,0.00,,,0.00,meteohub,2013-05-29 17:52:00,
2013-05-29 14:02:00,87.1,62.6,30.35,SE,135,2.0,4.0,44,0.00,,,0.00,meteohub,2013-05-29 18:02:00,
2013-05-29 14:12:00,88.0,62.6,30.35,WNW,292,2.0,2.0,43,0.00,,,0.00,meteohub,2013-05-29 18:12:00,
2013-05-29 14:22:00,88.0,61.3,30.35,SW,225,1.0,4.0,41,0.00,,,0.00,meteohub,2013-05-29 18:22:00,
2013-05-29 14:32:00,89.1,63.0,30.35,SE,135,0.0,4.0,42,0.00,,,0.00,meteohub,2013-05-29 18:32:00,
2013-05-29 14:42:00,89.1,60.8,30.35,NW,315,3.0,4.0,39,0.00,,,0.00,meteohub,2013-05-29 18:42:00,
2013-05-29 14:52:00,88.0,62.6,30.35,SW,225,1.0,6.0,43,0.00,,,0.00,meteohub,2013-05-29 18:52:00,
2013-05-29 15:02:00,89.1,60.8,30.35,South,180,1.0,5.0,39,0.00,,,0.00,meteohub,2013-05-29 19:02:00,
2013-05-29 15:12:00,89.1,60.8,30.35,South,180,2.0,4.0,39,0.00,,,0.00,meteohub,2013-05-29 19:12:00,
2013-05-29 15:22:00,89.1,61.5,30.35,South,180,1.0,3.0,40,0.00,,,0.00,meteohub,2013-05-29 19:22:00,
2013-05-29 15:32:00,90.0,63.1,30.35,SW,225,4.0,4.0,41,0.00,,,0.00,meteohub,2013-05-29 19:32:00,
2013-05-29 15:42:00,91.0,63.3,30.35,SW,225,1.0,4.0,40,0.00,,,0.00,meteohub,2013-05-29 19:42:00,
2013-05-29 15:52:00,90.0,62.4,30.34,South,180,2.0,4.0,40,0.00,,,0.00,meteohub,2013-05-29 19:52:00,
2013-05-29 16:02:00,89.1,63.7,30.34,SW,225,1.0,5.0,43,0.00,,,0.00,meteohub,2013-05-29 20:02:00,
2013-05-29 16:12:00,89.1,64.2,30.34,SW,225,2.0,3.0,44,0.00,,,0.00,meteohub,2013-05-29 20:12:00,
2013-05-29 16:22:00,89.1,64.2,30.33,South,180,2.0,2.0,44,0.00,,,0.00,meteohub,2013-05-29 20:22:00,
2013-05-29 16:32:00,90.0,65.1,30.33,SSW,202,1.0,3.0,44,0.00,,,0.00,meteohub,2013-05-29 20:32:00,
2013-05-29 16:42:00,89.1,64.2,30.33,SW,225,1.0,3.0,44,0.00,,,0.00,meteohub,2013-05-29 20:42:00,
2013-05-29 16:52:00,89.1,63.7,30.33,SSE,157,2.0,4.0,43,0.00,,,0.00,meteohub,2013-05-29 20:52:00,
2013-05-29 17:02:00,88.0,62.6,30.33,SW,225,1.0,4.0,43,0.00,,,0.00,meteohub,2013-05-29 21:02:00,
2013-05-29 17:12:00,88.0,62.6,30.33,South,180,1.0,6.0,43,0.00,,,0.00,meteohub,2013-05-29 21:12:00,
2013-05-29 17:22:00,90.0,63.1,30.32,SW,225,2.0,6.0,41,0.00,,,0.00,meteohub,2013-05-29 21:22:00,
2013-05-29 17:32:00,90.0,62.4,30.33,South,180,1.0,4.0,40,0.00,,,0.00,meteohub,2013-05-29 21:32:00,
2013-05-29 17:42:00,89.1,62.2,30.32,SSW,202,0.0,4.0,41,0.00,,,0.00,meteohub,2013-05-29 21:42:00,
2013-05-29 17:52:00,88.0,62.1,30.32,South,180,1.0,4.0,42,0.00,,,0.00,meteohub,2013-05-29 21:52:00,
2013-05-29 18:02:00,89.1,63.0,30.32,WSW,247,1.0,4.0,42,0.00,,,0.00,meteohub,2013-05-29 22:02:00,
2013-05-29 18:12:00,88.0,62.6,30.32,SW,225,1.0,2.0,43,0.00,,,0.00,meteohub,2013-05-29 22:12:00,
2013-05-29 18:22:00,88.0,62.6,30.32,South,180,2.0,4.0,43,0.00,,,0.00,meteohub,2013-05-29 22:22:00,
2013-05-29 18:32:00,87.1,61.9,30.32,SSW,202,0.0,3.0,43,0.00,,,0.00,meteohub,2013-05-29 22:32:00,
2013-05-29 18:42:00,87.1,62.6,30.32,SW,225,1.0,3.0,44,0.00,,,0.00,meteohub,2013-05-29 22:42:00,
2013-05-29 18:52:00,87.1,63.1,30.32,SW,225,0.0,2.0,45,0.00,,,0.00,meteohub,2013-05-29 22:52:00,
2013-05-29 19:02:00,87.1,63.1,30.32,SE,135,1.0,3.0,45,0.00,,,0.00,meteohub,2013-05-29 23:02:00,
2013-05-29 19:12:00,86.0,62.8,30.32,South,180,1.0,3.0,46,0.00,,,0.00,meteohub,2013-05-29 23:12:00,
2013-05-29 19:22:00,84.9,62.4,30.32,South,180,0.0,2.0,47,0.00,,,0.00,meteohub,2013-05-29 23:22:00,
2013-05-29 19:32:00,84.0,62.8,30.31,SW,225,1.0,2.0,49,0.00,,,0.00,meteohub,2013-05-29 23:32:00,
2013-05-29 19:42:00,84.0,63.3,30.31,SW,225,1.0,3.0,50,0.00,,,0.00,meteohub,2013-05-29 23:42:00,
2013-05-29 19:52:00,82.9,63.0,30.30,South,180,1.0,3.0,51,0.00,,,0.00,meteohub,2013-05-29 23:52:00,
2013-05-29 20:02:00,82.9,64.0,30.30,SW,225,1.0,2.0,53,0.00,,,0.00,meteohub,2013-05-30 00:02:00,
2013-05-29 20:12:00,82.0,63.7,30.30,South,180,2.0,2.0,54,0.00,,,0.00,meteohub,2013-05-30 00:12:00,
2013-05-29 20:22:00,82.0,64.2,30.29,SW,225,2.0,2.0,55,0.00,,,0.00,meteohub,2013-05-30 00:22:00,
2013-05-29 20:32:00,81.0,63.3,30.29,South,180,1.0,2.0,55,0.00,,,0.00,meteohub,2013-05-30 00:32:00,
2013-05-29 20:42:00,81.0,63.9,30.29,SW,225,1.0,4.0,56,0.00,,,0.00,meteohub,2013-05-30 00:42:00,
2013-05-29 20:52:00,80.1,63.5,30.29,SSE,157,1.0,2.0,57,0.00,,,0.00,meteohub,2013-05-30 00:52:00,
2013-05-29 21:02:00,80.1,63.9,30.29,South,180,1.0,2.0,58,0.00,,,0.00,meteohub,2013-05-30 01:02:00,
2013-05-29 21:12:00,80.1,64.4,30.29,South,180,1.0,2.0,59,0.00,,,0.00,meteohub,2013-05-30 01:12:00,
2013-05-29 21:22:00,79.0,63.9,30.29,South,180,1.0,2.0,60,0.00,,,0.00,meteohub,2013-05-30 01:22:00,
2013-05-29 21:32:00,79.0,64.4,30.28,South,180,1.0,2.0,61,0.00,,,0.00,meteohub,2013-05-30 01:32:00,
2013-05-29 21:42:00,79.0,64.8,30.28,South,180,2.0,2.0,62,0.00,,,0.00,meteohub,2013-05-30 01:42:00,
2013-05-29 21:52:00,78.1,64.4,30.28,South,180,2.0,2.0,63,0.00,,,0.00,meteohub,2013-05-30 01:52:00,
2013-05-29 22:02:00,78.1,64.9,30.28,South,180,1.0,2.0,64,0.00,,,0.00,meteohub,2013-05-30 02:02:00,
2013-05-29 22:12:00,78.1,65.3,30.29,South,180,1.0,2.0,65,0.00,,,0.00,meteohub,2013-05-30 02:12:00,
2013-05-29 22:22:00,78.1,65.3,30.29,South,180,2.0,2.0,65,0.00,,,0.00,meteohub,2013-05-30 02:22:00,
2013-05-29 22:32:00,78.1,65.8,30.29,SW,225,1.0,2.0,66,0.00,,,0.00,meteohub,2013-05-30 02:32:00,
2013-05-29 22:42:00,78.1,65.3,30.29,South,180,2.0,2.0,65,0.00,,,0.00,meteohub,2013-05-30 02:42:00,
2013-05-29 22:52:00,78.1,65.8,30.30,South,180,2.0,4.0,66,0.00,,,0.00,meteohub,2013-05-30 02:52:00,
2013-05-29 23:02:00,77.0,65.1,30.30,SSW,202,1.0,2.0,67,0.00,,,0.00,meteohub,2013-05-30 03:02:00,
2013-05-29 23:12:00,77.0,65.1,30.30,SW,225,2.0,2.0,67,0.00,,,0.00,meteohub,2013-05-30 03:12:00,
2013-05-29 23:22:00,77.0,65.7,30.30,South,180,2.0,2.0,68,0.00,,,0.00,meteohub,2013-05-30 03:22:00,
2013-05-29 23:32:00,77.0,66.0,30.30,SSW,202,1.0,2.0,69,0.00,,,0.00,meteohub,2013-05-30 03:32:00,
2013-05-29 23:42:00,75.9,64.6,30.30,South,180,1.0,3.0,68,0.00,,,0.00,meteohub,2013-05-30 03:42:00,
2013-05-29 23:52:00,75.9,64.6,30.30,South,180,1.0,4.0,68,0.00,,,0.00,meteohub,2013-05-30 03:52:00,